New Carlisle, Ohio
Current Conditions -  °F | °C
As of 12:58 PM on Tuesday 21 Oct 2014 (Local Time) from KFFO Reporting Station
Broken Clouds Broken Clouds  
Wind Chill: 51°   Ceiling: 4000
Heat Index: 51°   Visibility: 10mi
Dew Point: 43°   Wind: 10mph
Humidity: 72%   Direction: 330°NNW
Pressure: 30.03"   Gusts: NA
Location:  39.94°N, 84.02°W
Report Text: KFFO 211658Z 33009KT 10SM SCT021 BKN040 11/06 A3003 RMK AO2A SLP173 T01080060
Loading
Personal Weather Stations






























Interactive Weather Map
Tropical Storm Tracking
New forecast layout! Learn more

10-Day Weather Forecast

Advertisements
Track Severe Weather on mobile